createdAt,value
2018-03-15T00:00:14.399Z,91473.58
2018-03-15T00:01:03.192Z,91474.61
2018-03-15T00:02:00.792Z,91473.14
2018-03-15T00:02:49.836Z,91470.83
2018-03-15T00:03:38.940Z,91472.55
2018-03-15T00:04:35.602Z,91468.96
2018-03-15T00:05:24.656Z,91474.03
2018-03-15T00:06:13.703Z,91469.86
2018-03-15T00:07:02.775Z,91474.09
2018-03-15T00:07:51.820Z,91475.86
2018-03-15T00:08:40.875Z,91472.47
2018-03-15T00:09:29.924Z,91474.18
2018-03-15T00:10:19.023Z,91466.63
2018-03-15T00:11:08.054Z,91474.53
2018-03-15T00:11:57.184Z,91470.04
2018-03-15T00:12:46.231Z,91469.22
2018-03-15T00:13:35.281Z,91467.05
2018-03-15T00:14:24.328Z,91459.84
2018-03-15T00:15:13.748Z,91464.59
2018-03-15T00:16:02.800Z,91461.27
2018-03-15T00:16:51.845Z,91470.59
2018-03-15T00:17:40.891Z,91469.39
2018-03-15T00:18:29.982Z,91462.85
2018-03-15T00:19:19.090Z,91462.55
2018-03-15T00:20:08.139Z,91466.50
2018-03-15T00:20:57.185Z,91467.53
2018-03-15T00:21:46.242Z,91465.63
2018-03-15T00:22:35.281Z,91467.02
2018-03-15T00:23:24.323Z,91468.41
2018-03-15T00:24:13.365Z,91467.14
2018-03-15T00:25:02.500Z,91469.22
2018-03-15T00:25:51.545Z,91466.79
2018-03-15T00:26:40.591Z,91465.80
2018-03-15T00:27:29.636Z,91464.91
2018-03-15T00:28:18.685Z,91462.75
2018-03-15T00:29:07.733Z,91456.84
2018-03-15T00:29:56.774Z,91463.91
2018-03-15T00:30:46.110Z,91469.34
2018-03-15T00:31:35.173Z,91460.21
2018-03-15T00:32:24.241Z,91463.45
2018-03-15T00:33:13.287Z,91463.67
2018-03-15T00:34:02.338Z,91459.67
2018-03-15T00:34:51.383Z,91460.64
2018-03-15T00:35:40.432Z,91462.36
2018-03-15T00:36:29.529Z,91457.91
2018-03-15T00:37:18.571Z,91468.56
2018-03-15T00:38:07.643Z,91465.03
2018-03-15T00:38:56.687Z,91463.18
2018-03-15T00:39:45.734Z,91471.91
2018-03-15T00:40:34.809Z,91472.46
2018-03-15T00:41:23.856Z,91465.38
2018-03-15T00:42:13.005Z,91466.09
2018-03-15T00:43:02.054Z,91467.70
2018-03-15T00:43:51.104Z,91466.67
2018-03-15T00:44:40.153Z,91468.05
2018-03-15T00:45:29.211Z,91466.01
2018-03-15T00:46:18.252Z,91466.79
2018-03-15T00:47:07.300Z,91463.78
2018-03-15T00:47:56.401Z,91473.89
2018-03-15T00:48:45.457Z,91466.19
2018-03-15T00:49:34.499Z,91467.51
2018-03-15T00:50:23.773Z,91464.31
2018-03-15T00:51:12.822Z,91462.17
2018-03-15T00:52:01.874Z,91462.25
2018-03-15T00:52:50.918Z,91464.84
2018-03-15T00:53:40.510Z,91462.20
2018-03-15T00:54:29.551Z,91460.25
2018-03-15T00:55:18.600Z,91457.69
2018-03-15T00:56:07.652Z,91462.02
2018-03-15T00:56:56.718Z,91454.91
2018-03-15T00:57:45.759Z,91456.41
2018-03-15T00:58:34.800Z,91454.16
2018-03-15T00:59:23.980Z,91449.20
2018-03-15T01:00:13.046Z,91448.66
2018-03-15T01:01:02.118Z,91443.81
2018-03-15T01:01:51.179Z,91453.19
2018-03-15T01:02:40.214Z,91449.98
2018-03-15T01:03:29.266Z,91444.66
2018-03-15T01:04:18.311Z,91446.61
2018-03-15T01:05:07.531Z,91441.70
2018-03-15T01:05:56.599Z,91447.23
2018-03-15T01:06:45.642Z,91441.79
2018-03-15T01:07:34.697Z,91448.19
2018-03-15T01:08:23.742Z,91446.95
2018-03-15T01:09:12.791Z,91448.27
2018-03-15T01:10:01.832Z,91446.84
2018-03-15T01:10:50.927Z,91442.85
2018-03-15T01:11:39.987Z,91442.48
2018-03-15T01:12:29.064Z,91441.05
2018-03-15T01:13:18.108Z,91442.47
2018-03-15T01:14:07.173Z,91445.56
2018-03-15T01:14:56.430Z,91448.86
2018-03-15T01:15:45.476Z,91449.13
2018-03-15T01:16:34.613Z,91442.41
2018-03-15T01:17:23.652Z,91448.36
2018-03-15T01:18:12.702Z,91447.02
2018-03-15T01:19:01.750Z,91446.14
2018-03-15T01:19:50.811Z,91442.87
2018-03-15T01:20:39.860Z,91440.57
2018-03-15T01:21:28.902Z,91446.95
2018-03-15T01:22:18.421Z,91445.36
2018-03-15T01:23:07.469Z,91444.22
2018-03-15T01:23:56.519Z,91448.41
2018-03-15T01:24:45.912Z,91446.27
2018-03-15T01:25:34.951Z,91445.91
2018-03-15T01:26:24.001Z,91446.34
2018-03-15T01:27:13.052Z,91445.34
2018-03-15T01:28:03.102Z,91442.00
2018-03-15T01:28:52.142Z,91438.62
2018-03-15T01:29:41.190Z,91442.56
2018-03-15T01:30:30.581Z,91444.55
2018-03-15T01:31:19.635Z,91444.33
2018-03-15T01:32:08.689Z,91449.83
2018-03-15T01:32:57.748Z,91439.98
2018-03-15T01:33:46.840Z,91445.05
2018-03-15T01:34:35.900Z,91441.48
2018-03-15T01:35:25.480Z,91447.16
2018-03-15T01:36:14.519Z,91453.62
2018-03-15T01:37:03.563Z,91442.54
2018-03-15T01:37:52.612Z,91446.20
2018-03-15T01:38:41.663Z,91445.31
2018-03-15T01:39:30.710Z,91441.31
2018-03-15T01:40:19.771Z,91448.11
2018-03-15T01:41:08.848Z,91444.30
2018-03-15T01:41:57.949Z,91448.85
2018-03-15T01:42:47.011Z,91443.89
2018-03-15T01:43:36.057Z,91453.74
2018-03-15T01:44:25.104Z,91450.47
2018-03-15T01:45:14.148Z,91445.95
2018-03-15T01:46:03.198Z,91449.85
2018-03-15T01:46:52.302Z,91448.61
2018-03-15T01:47:41.356Z,91448.80
2018-03-15T01:48:30.417Z,91445.95
2018-03-15T01:49:19.480Z,91448.27
2018-03-15T01:50:08.534Z,91448.00
2018-03-15T01:50:57.577Z,91444.63
2018-03-15T01:51:46.615Z,91445.22
2018-03-15T01:52:35.757Z,91444.86
2018-03-15T01:53:24.803Z,91441.41
2018-03-15T01:54:13.848Z,91443.79
2018-03-15T01:55:02.890Z,91444.58
2018-03-15T01:55:51.935Z,91441.05
2018-03-15T01:56:40.981Z,91441.31
2018-03-15T01:57:30.033Z,91438.30
2018-03-15T01:58:19.118Z,91436.62
2018-03-15T01:59:08.174Z,91440.00
2018-03-15T01:59:57.233Z,91442.23
2018-03-15T02:00:46.293Z,91444.77
2018-03-15T02:01:35.359Z,91438.09
2018-03-15T02:02:24.392Z,91435.25
2018-03-15T02:03:13.444Z,91440.97
2018-03-15T02:04:02.535Z,91438.40
2018-03-15T02:04:51.579Z,91438.66
2018-03-15T02:05:40.637Z,91438.30
2018-03-15T02:06:29.699Z,91432.54
2018-03-15T02:07:18.751Z,91436.76
2018-03-15T02:08:07.852Z,91440.22
2018-03-15T02:08:57.116Z,91433.13
2018-03-15T02:09:46.678Z,91443.50
2018-03-15T02:10:35.727Z,91437.59
2018-03-15T02:11:24.763Z,91436.09
2018-03-15T02:12:13.841Z,91437.25
2018-03-15T02:13:02.879Z,91440.52
2018-03-15T02:13:51.923Z,91435.91
2018-03-15T02:14:40.982Z,91439.19
2018-03-15T02:15:30.567Z,91442.20
2018-03-15T02:16:19.638Z,91444.25
2018-03-15T02:17:08.683Z,91443.18
2018-03-15T02:17:57.727Z,91438.12
2018-03-15T02:18:46.799Z,91439.37
2018-03-15T02:19:35.848Z,91439.45
2018-03-15T02:20:24.900Z,91436.88
2018-03-15T02:21:13.952Z,91437.16
2018-03-15T02:22:03.090Z,91438.92
2018-03-15T02:22:52.129Z,91440.70
2018-03-15T02:23:41.178Z,91439.11
2018-03-15T02:24:30.286Z,91439.72
2018-03-15T02:25:19.330Z,91439.38
2018-03-15T02:26:08.386Z,91440.08
2018-03-15T02:26:57.428Z,91438.57
2018-03-15T02:27:46.471Z,91436.00
2018-03-15T02:28:35.506Z,91435.73
2018-03-15T02:29:24.548Z,91428.56
2018-03-15T02:30:13.644Z,91434.41
2018-03-15T02:31:02.684Z,91433.97
2018-03-15T02:31:51.747Z,91432.46
2018-03-15T02:32:41.003Z,91436.36
2018-03-15T02:33:30.053Z,91436.89
2018-03-15T02:34:19.211Z,91439.72
2018-03-15T02:35:08.251Z,91433.44
2018-03-15T02:35:59.958Z,91439.09
2018-03-15T02:36:49.001Z,91443.45
2018-03-15T02:37:38.045Z,91439.55
2018-03-15T02:38:27.093Z,91445.84
2018-03-15T02:39:16.129Z,91438.92
2018-03-15T02:40:05.757Z,91445.48
2018-03-15T02:40:54.816Z,91441.84
2018-03-15T02:41:43.875Z,91442.19
2018-03-15T02:42:32.943Z,91441.98
2018-03-15T02:43:21.995Z,91445.38
2018-03-15T02:44:11.062Z,91443.80
2018-03-15T02:45:00.119Z,91439.53
2018-03-15T02:45:49.250Z,91440.07
2018-03-15T02:46:38.300Z,91438.75
2018-03-15T02:47:27.611Z,91442.91
2018-03-15T02:48:16.666Z,91436.63
2018-03-15T02:49:05.809Z,91437.06
2018-03-15T02:49:54.842Z,91442.30
2018-03-15T02:50:43.893Z,91443.35
2018-03-15T02:51:32.943Z,91432.72
2018-03-15T02:52:21.992Z,91436.53
2018-03-15T02:53:11.044Z,91436.62
2018-03-15T02:54:00.097Z,91440.16
2018-03-15T02:54:49.308Z,91442.91
2018-03-15T02:55:38.369Z,91439.36
2018-03-15T02:56:27.421Z,91443.79
2018-03-15T02:57:16.483Z,91443.95
2018-03-15T02:58:05.527Z,91449.45
2018-03-15T02:58:54.594Z,91442.63
2018-03-15T02:59:43.650Z,91452.66
2018-03-15T03:00:33.039Z,91445.66
2018-03-15T03:01:22.171Z,91446.81
2018-03-15T03:02:11.210Z,91452.28
2018-03-15T03:03:00.259Z,91449.98
2018-03-15T03:03:49.291Z,91451.14
2018-03-15T03:04:38.319Z,91446.44
2018-03-15T03:05:27.373Z,91446.73
2018-03-15T03:06:16.420Z,91453.17
2018-03-15T03:07:05.507Z,91452.97
2018-03-15T03:07:54.558Z,91449.24
2018-03-15T03:08:43.619Z,91453.52
2018-03-15T03:09:32.674Z,91449.66
2018-03-15T03:10:21.725Z,91452.91
2018-03-15T03:11:10.762Z,91450.33
2018-03-15T03:12:00.021Z,91452.53
2018-03-15T03:12:49.135Z,91453.94
2018-03-15T03:13:38.193Z,91453.50
2018-03-15T03:14:27.244Z,91447.25
2018-03-15T03:15:16.293Z,91448.32
2018-03-15T03:16:05.361Z,91452.28
2018-03-15T03:16:54.399Z,91451.23
2018-03-15T03:17:43.699Z,91455.41
2018-03-15T03:18:32.747Z,91460.09
2018-03-15T03:19:21.823Z,91453.64
2018-03-15T03:20:10.867Z,91456.48
2018-03-15T03:21:00.013Z,91457.55
2018-03-15T03:21:49.061Z,91460.06
2018-03-15T03:22:38.128Z,91459.13
2018-03-15T03:23:27.196Z,91457.83
2018-03-15T03:24:16.246Z,91459.53
2018-03-15T03:25:05.291Z,91461.03
2018-03-15T03:25:54.346Z,91456.97
2018-03-15T03:26:43.604Z,91460.01
2018-03-15T03:27:32.648Z,91460.86
2018-03-15T03:28:21.693Z,91456.45
2018-03-15T03:29:10.739Z,91454.31
2018-03-15T03:29:59.787Z,91458.21
2018-03-15T03:30:48.845Z,91458.46
2018-03-15T03:31:37.895Z,91458.55
2018-03-15T03:32:26.990Z,91459.70
2018-03-15T03:33:16.036Z,91460.38
2018-03-15T03:34:05.085Z,91454.11
2018-03-15T03:34:54.135Z,91465.88
2018-03-15T03:35:43.200Z,91459.69
2018-03-15T03:36:32.255Z,91463.13
2018-03-15T03:37:21.313Z,91464.80
2018-03-15T03:38:10.447Z,91462.98
2018-03-15T03:38:59.488Z,91468.39
2018-03-15T03:39:48.567Z,91466.64
2018-03-15T03:40:37.608Z,91463.03
2018-03-15T03:41:26.662Z,91463.86
2018-03-15T03:42:15.715Z,91466.08
2018-03-15T03:43:04.782Z,91462.12
2018-03-15T03:43:53.878Z,91467.72
2018-03-15T03:44:42.928Z,91460.74
2018-03-15T03:45:31.967Z,91463.24
2018-03-15T03:46:21.007Z,91464.22
2018-03-15T03:47:10.053Z,91465.45
2018-03-15T03:47:59.114Z,91466.90
2018-03-15T03:48:48.162Z,91462.04
2018-03-15T03:49:37.504Z,91464.67
2018-03-15T03:50:26.551Z,91462.92
2018-03-15T03:51:15.622Z,91464.00
2018-03-15T03:52:04.671Z,91467.95
2018-03-15T03:52:53.736Z,91463.98
2018-03-15T03:53:42.851Z,91467.17
2018-03-15T03:54:31.891Z,91466.77
2018-03-15T03:55:21.005Z,91461.44
2018-03-15T03:56:10.056Z,91467.02
2018-03-15T03:56:59.094Z,91463.11
2018-03-15T03:57:48.147Z,91467.88
2018-03-15T03:58:37.197Z,91468.92
2018-03-15T03:59:26.261Z,91469.57
2018-03-15T04:00:15.296Z,91468.45
2018-03-15T04:01:04.445Z,91462.13
2018-03-15T04:01:53.491Z,91464.58
2018-03-15T04:02:42.545Z,91462.32
2018-03-15T04:03:31.584Z,91466.58
2018-03-15T04:04:20.625Z,91465.48
2018-03-15T04:05:09.707Z,91463.16
2018-03-15T04:05:58.747Z,91465.67
2018-03-15T04:06:48.408Z,91466.22
2018-03-15T04:07:37.448Z,91470.40
2018-03-15T04:08:26.494Z,91468.83
2018-03-15T04:09:15.570Z,91468.02
2018-03-15T04:10:04.645Z,91469.67
2018-03-15T04:10:53.685Z,91472.00
2018-03-15T04:11:42.729Z,91467.14
2018-03-15T04:12:31.763Z,91474.99
2018-03-15T04:13:20.813Z,91474.56
2018-03-15T04:14:09.856Z,91476.34
2018-03-15T04:14:58.936Z,91472.27
2018-03-15T04:15:48.013Z,91471.48
2018-03-15T04:16:37.063Z,91473.30
2018-03-15T04:17:26.103Z,91470.25
2018-03-15T04:18:15.163Z,91466.22
2018-03-15T04:19:04.222Z,91470.91
2018-03-15T04:19:53.276Z,91470.88
2018-03-15T04:20:42.404Z,91471.97
2018-03-15T04:21:31.467Z,91469.39
2018-03-15T04:22:20.520Z,91470.38
2018-03-15T04:23:09.574Z,91470.13
2018-03-15T04:23:58.719Z,91475.97
2018-03-15T04:24:47.762Z,91475.47
2018-03-15T04:25:36.841Z,91476.41
2018-03-15T04:26:25.883Z,91471.92
2018-03-15T04:27:14.918Z,91479.66
2018-03-15T04:28:03.958Z,91477.28
2018-03-15T04:28:53.006Z,91475.97
2018-03-15T04:29:42.090Z,91467.68
2018-03-15T04:30:31.131Z,91470.17
2018-03-15T04:31:20.191Z,91468.11
2018-03-15T04:32:09.238Z,91476.68
2018-03-15T04:32:58.279Z,91472.58
2018-03-15T04:33:47.325Z,91470.91
2018-03-15T04:34:36.372Z,91474.33
2018-03-15T04:35:25.818Z,91475.55
2018-03-15T04:36:14.864Z,91474.36
2018-03-15T04:37:03.920Z,91477.84
2018-03-15T04:37:52.963Z,91480.08
2018-03-15T04:38:42.006Z,91480.79
2018-03-15T04:39:31.046Z,91479.14
2018-03-15T04:40:20.662Z,91480.39
2018-03-15T04:41:09.710Z,91485.10
2018-03-15T04:41:58.755Z,91485.27
2018-03-15T04:42:47.801Z,91481.05
2018-03-15T04:43:36.839Z,91481.98
2018-03-15T04:44:25.879Z,91484.89
2018-03-15T04:45:14.933Z,91484.63
2018-03-15T04:46:04.047Z,91489.38
2018-03-15T04:46:53.083Z,91484.08
2018-03-15T04:47:42.146Z,91487.63
2018-03-15T04:48:31.199Z,91485.58
2018-03-15T04:49:20.244Z,91488.70
2018-03-15T04:50:09.296Z,91490.08
2018-03-15T04:50:58.342Z,91491.01
2018-03-15T04:51:47.641Z,91491.61
2018-03-15T04:52:36.687Z,91489.51
2018-03-15T04:53:25.731Z,91493.88
2018-03-15T04:54:14.779Z,91490.16
2018-03-15T04:55:03.885Z,91493.48
2018-03-15T04:55:52.937Z,91496.23
2018-03-15T04:56:42.001Z,91496.66
2018-03-15T04:57:31.101Z,91498.62
2018-03-15T04:58:20.149Z,91494.31
2018-03-15T04:59:09.205Z,91498.78
2018-03-15T04:59:58.264Z,91499.70
2018-03-15T05:00:47.316Z,91492.54
2018-03-15T05:01:36.377Z,91495.48
2018-03-15T05:02:25.425Z,91499.73
2018-03-15T05:03:14.575Z,91498.67
2018-03-15T05:04:03.633Z,91500.89
2018-03-15T05:04:52.704Z,91501.05
2018-03-15T05:05:41.789Z,91503.94
2018-03-15T05:06:30.938Z,91499.23
2018-03-15T05:07:19.993Z,91504.15
2018-03-15T05:08:09.048Z,91497.45
2018-03-15T05:08:59.341Z,91501.36
2018-03-15T05:09:48.461Z,91497.20
2018-03-15T05:10:37.509Z,91503.95
2018-03-15T05:11:26.560Z,91503.72
2018-03-15T05:12:15.621Z,91499.33
2018-03-15T05:13:04.677Z,91501.14
2018-03-15T05:13:53.743Z,91499.57
2018-03-15T05:14:42.801Z,91500.30
2018-03-15T05:15:31.892Z,91497.98
2018-03-15T05:16:20.952Z,91495.44
2018-03-15T05:17:09.998Z,91495.89
2018-03-15T05:17:59.061Z,91501.30
2018-03-15T05:18:48.141Z,91499.27
2018-03-15T05:19:37.187Z,91502.82
2018-03-15T05:20:26.227Z,91500.42
2018-03-15T05:21:15.367Z,91506.88
2018-03-15T05:22:04.416Z,91508.56
2018-03-15T05:22:53.466Z,91499.31
2018-03-15T05:23:42.516Z,91509.46
2018-03-15T05:24:31.581Z,91512.12
2018-03-15T05:25:20.635Z,91514.98
2018-03-15T05:26:09.680Z,91512.44
2018-03-15T05:26:58.760Z,91510.75
2018-03-15T05:27:47.814Z,91512.89
2018-03-15T05:28:36.856Z,91513.95
2018-03-15T05:29:25.904Z,91514.87
2018-03-15T05:30:14.964Z,91510.19
2018-03-15T05:31:04.049Z,91508.69
2018-03-15T05:31:53.112Z,91506.12
2018-03-15T05:32:42.216Z,91511.77
2018-03-15T05:33:31.271Z,91510.53
2018-03-15T05:34:20.366Z,91508.75
2018-03-15T05:35:09.424Z,91511.85
2018-03-15T05:35:58.484Z,91507.33
2018-03-15T05:36:47.545Z,91512.39
2018-03-15T05:37:36.594Z,91511.14
2018-03-15T05:38:26.053Z,91513.45
2018-03-15T05:39:15.104Z,91518.42
2018-03-15T05:40:04.159Z,91514.42
2018-03-15T05:40:56.111Z,91514.69
2018-03-15T05:41:45.165Z,91511.50
2018-03-15T05:42:34.209Z,91508.39
2018-03-15T05:43:23.256Z,91520.19
2018-03-15T05:44:12.306Z,91520.27
2018-03-15T05:45:01.365Z,91520.01
2018-03-15T05:45:50.416Z,91519.74
2018-03-15T05:46:39.510Z,91523.30
2018-03-15T05:47:28.565Z,91522.67
2018-03-15T05:48:17.608Z,91526.58
2018-03-15T05:49:06.672Z,91527.46
2018-03-15T05:49:55.737Z,91528.97
2018-03-15T05:50:44.803Z,91524.70
2018-03-15T05:51:33.869Z,91530.18
2018-03-15T05:52:22.969Z,91532.14
2018-03-15T05:53:12.013Z,91528.10
2018-03-15T05:54:01.047Z,91529.77
2018-03-15T05:54:50.090Z,91522.98
2018-03-15T05:55:39.423Z,91522.89
2018-03-15T05:56:28.471Z,91532.41
2018-03-15T05:57:17.638Z,91535.60
2018-03-15T05:58:06.686Z,91531.70
2018-03-15T05:58:55.749Z,91536.76
2018-03-15T05:59:44.797Z,91538.36
2018-03-15T06:00:33.856Z,91535.36
2018-03-15T06:01:22.906Z,91537.48
2018-03-15T06:02:11.956Z,91543.07
2018-03-15T06:03:01.342Z,91542.01
2018-03-15T06:03:50.395Z,91546.62
2018-03-15T06:04:39.454Z,91541.31
2018-03-15T06:05:28.506Z,91545.83
2018-03-15T06:06:17.572Z,91542.36
2018-03-15T06:07:06.637Z,91549.01
2018-03-15T06:07:55.716Z,91544.86
2018-03-15T06:08:45.014Z,91550.80
2018-03-15T06:09:34.068Z,91540.87
2018-03-15T06:10:23.146Z,91544.58
2018-03-15T06:11:12.296Z,91538.02
2018-03-15T06:12:01.364Z,91541.47
2018-03-15T06:12:50.411Z,91537.86
2018-03-15T06:13:39.514Z,91541.83
2018-03-15T06:14:28.859Z,91542.98
2018-03-15T06:15:17.924Z,91540.39
2018-03-15T06:16:06.987Z,91536.05
2018-03-15T06:16:56.100Z,91544.78
2018-03-15T06:17:45.154Z,91540.87
2018-03-15T06:18:34.195Z,91537.07
2018-03-15T06:19:23.249Z,91543.59
2018-03-15T06:20:12.806Z,91539.55
2018-03-15T06:21:01.864Z,91544.51
2018-03-15T06:21:50.911Z,91547.77
2018-03-15T06:22:40.019Z,91544.07
2018-03-15T06:23:29.077Z,91541.67
2018-03-15T06:24:18.119Z,91543.35
2018-03-15T06:25:07.188Z,91544.55
2018-03-15T06:25:56.468Z,91547.64
2018-03-15T06:26:45.572Z,91550.14
2018-03-15T06:27:34.618Z,91547.16
2018-03-15T06:28:23.671Z,91553.69
2018-03-15T06:29:12.725Z,91555.44
2018-03-15T06:30:01.790Z,91547.42
2018-03-15T06:30:50.831Z,91547.36
2018-03-15T06:31:39.890Z,91546.31
2018-03-15T06:32:29.024Z,91547.95
2018-03-15T06:33:18.065Z,91544.44
2018-03-15T06:34:07.148Z,91551.16
2018-03-15T06:34:56.187Z,91552.44
2018-03-15T06:35:45.232Z,91560.83
2018-03-15T06:36:34.277Z,91557.78
2018-03-15T06:37:23.333Z,91554.91
2018-03-15T06:38:12.439Z,91558.53
2018-03-15T06:39:01.490Z,91549.40
2018-03-15T06:39:50.552Z,91557.05
2018-03-15T06:40:39.603Z,91556.22
2018-03-15T06:41:28.644Z,91556.94
2018-03-15T06:42:17.687Z,91554.01
2018-03-15T06:43:06.729Z,91554.42
2018-03-15T06:43:55.894Z,91566.50
2018-03-15T06:44:44.932Z,91570.54
2018-03-15T06:45:33.987Z,91566.61
2018-03-15T06:46:23.042Z,91566.78
2018-03-15T06:47:12.091Z,91563.19
2018-03-15T06:48:01.369Z,91565.47
2018-03-15T06:48:50.412Z,91563.14
2018-03-15T06:49:39.506Z,91572.16
2018-03-15T06:50:28.565Z,91565.66
2018-03-15T06:51:17.613Z,91567.07
2018-03-15T06:52:06.678Z,91573.08
2018-03-15T06:52:55.750Z,91576.13
2018-03-15T06:53:44.841Z,91570.98
2018-03-15T06:54:33.887Z,91577.39
2018-03-15T06:55:23.044Z,91578.38
2018-03-15T06:56:12.100Z,91580.00
2018-03-15T06:57:01.154Z,91572.95
2018-03-15T06:57:50.200Z,91570.47
2018-03-15T06:58:39.252Z,91581.56
2018-03-15T06:59:28.304Z,91582.06
2018-03-15T07:00:17.369Z,91581.92
2018-03-15T07:01:06.471Z,91581.63
2018-03-15T07:01:55.526Z,91583.16
2018-03-15T07:02:44.578Z,91582.16
2018-03-15T07:03:33.616Z,91583.70
2018-03-15T07:04:22.725Z,91578.28
2018-03-15T07:05:11.765Z,91584.22
2018-03-15T07:06:00.820Z,91581.35
2018-03-15T07:06:49.918Z,91581.27
2018-03-15T07:07:38.950Z,91582.50
2018-03-15T07:08:27.997Z,91576.66
2018-03-15T07:09:17.028Z,91582.39
2018-03-15T07:10:06.207Z,91581.61
2018-03-15T07:10:55.454Z,91584.84
2018-03-15T07:11:44.503Z,91581.85
2018-03-15T07:12:33.564Z,91582.11
2018-03-15T07:13:22.617Z,91587.86
2018-03-15T07:14:11.674Z,91586.65
2018-03-15T07:15:00.724Z,91589.11
2018-03-15T07:15:49.803Z,91582.98
2018-03-15T07:16:38.846Z,91584.25
2018-03-15T07:17:27.912Z,91587.55
2018-03-15T07:18:16.962Z,91592.18
2018-03-15T07:19:06.012Z,91589.59
2018-03-15T07:19:55.067Z,91590.66
2018-03-15T07:20:44.123Z,91593.76
2018-03-15T07:21:33.942Z,91589.14
2018-03-15T07:22:22.983Z,91586.91
2018-03-15T07:23:12.024Z,91593.39
2018-03-15T07:24:01.092Z,91592.70
2018-03-15T07:24:50.159Z,91589.33
2018-03-15T07:25:39.302Z,91592.44
2018-03-15T07:26:28.365Z,91590.38
2018-03-15T07:27:17.414Z,91588.55
2018-03-15T07:28:06.461Z,91588.18
2018-03-15T07:28:55.523Z,91586.16
2018-03-15T07:29:44.571Z,91587.83
2018-03-15T07:30:33.636Z,91582.19
2018-03-15T07:31:22.722Z,91587.92
2018-03-15T07:32:11.778Z,91589.88
2018-03-15T07:33:00.847Z,91580.01
2018-03-15T07:33:49.888Z,91584.03
2018-03-15T07:34:38.938Z,91585.68
2018-03-15T07:35:27.976Z,91583.17
2018-03-15T07:36:17.039Z,91583.42
2018-03-15T07:37:06.377Z,91585.03
2018-03-15T07:37:55.423Z,91586.37
2018-03-15T07:38:44.462Z,91578.10
2018-03-15T07:39:33.521Z,91580.58
2018-03-15T07:40:22.559Z,91582.69
2018-03-15T07:41:11.597Z,91578.17
2018-03-15T07:42:00.692Z,91579.16
2018-03-15T07:42:49.746Z,91581.78
2018-03-15T07:43:38.787Z,91583.98
2018-03-15T07:44:27.850Z,91584.02
2018-03-15T07:45:16.900Z,91581.20
2018-03-15T07:46:05.996Z,91584.30
2018-03-15T07:46:55.156Z,91582.90
2018-03-15T07:47:44.205Z,91584.45
2018-03-15T07:48:33.301Z,91589.33
2018-03-15T07:49:22.331Z,91589.18
2018-03-15T07:50:11.361Z,91583.27
2018-03-15T07:51:00.772Z,91583.73
2018-03-15T07:51:49.793Z,91583.31
2018-03-15T07:52:39.083Z,91583.52
2018-03-15T07:53:28.107Z,91585.84
2018-03-15T07:54:17.140Z,91584.38
2018-03-15T07:55:06.176Z,91582.89
2018-03-15T07:55:55.211Z,91580.05
2018-03-15T07:56:44.259Z,91578.19
2018-03-15T07:57:33.309Z,91580.72
2018-03-15T07:58:22.396Z,91580.04
2018-03-15T07:59:11.447Z,91581.19
2018-03-15T08:00:00.493Z,91582.12
2018-03-15T08:00:49.561Z,91582.19
2018-03-15T08:01:44.423Z,91580.91
2018-03-15T08:02:33.487Z,91579.02
2018-03-15T08:03:22.515Z,91575.72
2018-03-15T08:04:11.660Z,91581.80
2018-03-15T08:05:00.705Z,91579.91
2018-03-15T08:05:49.738Z,91574.52
2018-03-15T08:06:38.797Z,91575.41
2018-03-15T08:07:27.851Z,91572.39
2018-03-15T08:08:16.896Z,91575.75
2018-03-15T08:09:05.946Z,91574.09
2018-03-15T08:09:55.088Z,91578.72
2018-03-15T08:10:44.154Z,91577.73
2018-03-15T08:11:33.267Z,91580.03
2018-03-15T08:12:22.304Z,91581.02
2018-03-15T08:13:11.350Z,91573.41
2018-03-15T08:14:00.394Z,91579.55
2018-03-15T08:14:49.467Z,91578.49
2018-03-15T08:15:38.723Z,91574.81
2018-03-15T08:16:27.773Z,91573.23
2018-03-15T08:17:16.897Z,91572.48
2018-03-15T08:18:05.960Z,91573.16
2018-03-15T08:18:54.994Z,91579.92
2018-03-15T08:19:44.137Z,91580.84
2018-03-15T08:20:33.208Z,91575.34
2018-03-15T08:21:22.264Z,91572.08
2018-03-15T08:22:11.302Z,91572.78
2018-03-15T08:23:00.362Z,91574.62
2018-03-15T08:23:49.398Z,91572.66
2018-03-15T08:24:38.442Z,91580.45
2018-03-15T08:25:27.591Z,91573.59
2018-03-15T08:26:16.645Z,91578.27
2018-03-15T08:27:05.773Z,91578.46
2018-03-15T08:27:54.806Z,91570.89
2018-03-15T08:28:46.484Z,91570.83
2018-03-15T08:29:35.522Z,91575.94
2018-03-15T08:30:24.555Z,91578.39
2018-03-15T08:31:13.588Z,91573.89
2018-03-15T08:32:02.693Z,91573.28
2018-03-15T08:32:51.736Z,91579.27
2018-03-15T08:33:40.780Z,91572.81
2018-03-15T08:34:29.895Z,91577.56
2018-03-15T08:35:18.942Z,91575.52
2018-03-15T08:36:07.987Z,91569.03
2018-03-15T08:36:57.031Z,91570.12
2018-03-15T08:37:46.103Z,91567.59
2018-03-15T08:38:35.198Z,91570.41
2018-03-15T08:39:24.265Z,91565.75
2018-03-15T08:40:13.346Z,91572.72
2018-03-15T08:41:02.375Z,91571.48
2018-03-15T08:41:51.428Z,91564.58
2018-03-15T08:42:40.580Z,91566.08
2018-03-15T08:43:29.610Z,91569.50
2018-03-15T08:44:18.651Z,91567.32
2018-03-15T08:45:07.720Z,91569.48
2018-03-15T08:45:56.760Z,91567.67
2018-03-15T08:46:45.996Z,91564.80
2018-03-15T08:47:35.092Z,91564.44
2018-03-15T08:48:24.135Z,91565.02
2018-03-15T08:49:13.190Z,91567.38
2018-03-15T08:50:02.245Z,91569.55
2018-03-15T08:50:51.300Z,91568.50
2018-03-15T08:51:40.371Z,91573.24
2018-03-15T08:52:29.468Z,91562.03
2018-03-15T08:53:18.505Z,91563.70
2018-03-15T08:54:07.561Z,91554.48
2018-03-15T08:54:56.610Z,91559.00
2018-03-15T08:55:45.749Z,91559.18
2018-03-15T08:56:34.857Z,91558.86
2018-03-15T08:57:23.909Z,91558.33
2018-03-15T08:58:12.950Z,91552.08
2018-03-15T08:59:02.018Z,91557.30
2018-03-15T08:59:51.061Z,91555.02
2018-03-15T09:00:40.106Z,91556.31
2018-03-15T09:01:29.257Z,91564.86
2018-03-15T09:02:18.287Z,91565.33
2018-03-15T09:03:07.341Z,91559.45
2018-03-15T09:03:56.376Z,91564.84
2018-03-15T09:04:45.417Z,91558.81
2018-03-15T09:05:34.450Z,91568.31
2018-03-15T09:06:23.546Z,91564.86
2018-03-15T09:07:12.749Z,91558.34
2018-03-15T09:08:01.869Z,91565.45
2018-03-15T09:08:50.923Z,91561.77
2018-03-15T09:09:39.971Z,91564.40
2018-03-15T09:10:29.016Z,91562.41
2018-03-15T09:11:18.065Z,91567.02
2018-03-15T09:12:07.487Z,91566.98
2018-03-15T09:12:56.525Z,91567.67
2018-03-15T09:13:45.576Z,91562.23
2018-03-15T09:14:34.643Z,91564.61
2018-03-15T09:15:23.729Z,91561.27
2018-03-15T09:16:12.865Z,91556.25
2018-03-15T09:17:01.874Z,91560.15
2018-03-15T09:17:51.259Z,91566.45
2018-03-15T09:18:40.310Z,91566.13
2018-03-15T09:19:29.353Z,91570.14
2018-03-15T09:20:18.392Z,91567.19
2018-03-15T09:21:07.462Z,91562.81
2018-03-15T09:21:56.513Z,91565.16
2018-03-15T09:22:45.607Z,91566.39
2018-03-15T09:23:34.702Z,91571.14
2018-03-15T09:24:23.734Z,91568.15
2018-03-15T09:25:12.829Z,91557.30
2018-03-15T09:26:01.848Z,91560.30
2018-03-15T09:26:50.954Z,91566.92
2018-03-15T09:27:39.988Z,91569.62
2018-03-15T09:28:29.021Z,91560.73
2018-03-15T09:29:18.081Z,91564.42
2018-03-15T09:30:07.123Z,91565.34
2018-03-15T09:30:56.252Z,91564.16
2018-03-15T09:31:45.310Z,91564.34
2018-03-15T09:32:34.367Z,91571.14
2018-03-15T09:33:23.413Z,91573.86
2018-03-15T09:34:12.478Z,91570.27
2018-03-15T09:35:02.015Z,91566.81
2018-03-15T09:35:51.062Z,91562.31
2018-03-15T09:36:40.281Z,91573.72